sensor_id;sensor_type;location;lat;lon;timestamp;P1;durP1;ratioP1;P2;durP2;ratioP2
15968;SDS011;8085;53.472;9.794;2023-03-22T00:02:13;15.20;;;11.07;;
15968;SDS011;8085;53.472;9.794;2023-03-22T00:04:42;18.27;;;10.93;;
15968;SDS011;8085;53.472;9.794;2023-03-22T00:07:09;17.03;;;11.17;;
15968;SDS011;8085;53.472;9.794;2023-03-22T00:09:36;17.90;;;11.13;;
15968;SDS011;8085;53.472;9.794;2023-03-22T00:12:03;16.47;;;11.00;;
15968;SDS011;8085;53.472;9.794;2023-03-22T00:14:30;17.83;;;11.57;;
15968;SDS011;8085;53.472;9.794;2023-03-22T00:16:57;17.03;;;11.83;;
15968;SDS011;8085;53.472;9.794;2023-03-22T00:19:24;14.83;;;11.50;;
15968;SDS011;8085;53.472;9.794;2023-03-22T00:21:54;17.17;;;11.47;;
15968;SDS011;8085;53.472;9.794;2023-03-22T00:24:21;16.80;;;11.97;;
15968;SDS011;8085;53.472;9.794;2023-03-22T00:26:48;17.50;;;11.90;;
15968;SDS011;8085;53.472;9.794;2023-03-22T00:29:15;15.40;;;11.07;;
15968;SDS011;8085;53.472;9.794;2023-03-22T00:31:42;14.97;;;11.87;;
15968;SDS011;8085;53.472;9.794;2023-03-22T00:34:08;19.70;;;11.93;;
15968;SDS011;8085;53.472;9.794;2023-03-22T00:36:35;17.80;;;12.27;;
15968;SDS011;8085;53.472;9.794;2023-03-22T00:39:03;16.10;;;12.13;;
15968;SDS011;8085;53.472;9.794;2023-03-22T00:41:30;19.43;;;12.43;;
15968;SDS011;8085;53.472;9.794;2023-03-22T00:43:57;15.10;;;11.57;;
15968;SDS011;8085;53.472;9.794;2023-03-22T00:46:24;16.40;;;12.30;;
15968;SDS011;8085;53.472;9.794;2023-03-22T00:48:51;17.73;;;12.53;;
15968;SDS011;8085;53.472;9.794;2023-03-22T00:51:18;20.30;;;12.03;;
15968;SDS011;8085;53.472;9.794;2023-03-22T00:53:45;17.73;;;12.97;;
15968;SDS011;8085;53.472;9.794;2023-03-22T00:56:15;19.40;;;13.57;;
15968;SDS011;8085;53.472;9.794;2023-03-22T00:58:42;19.90;;;12.87;;
15968;SDS011;8085;53.472;9.794;2023-03-22T01:01:10;21.93;;;13.10;;
15968;SDS011;8085;53.472;9.794;2023-03-22T01:03:38;18.00;;;12.50;;
15968;SDS011;8085;53.472;9.794;2023-03-22T01:06:05;18.97;;;13.10;;
15968;SDS011;8085;53.472;9.794;2023-03-22T01:08:33;22.53;;;13.03;;
15968;SDS011;8085;53.472;9.794;2023-03-22T01:11:02;22.90;;;13.87;;
15968;SDS011;8085;53.472;9.794;2023-03-22T01:13:31;20.27;;;14.13;;
15968;SDS011;8085;53.472;9.794;2023-03-22T01:15:58;21.20;;;13.47;;
15968;SDS011;8085;53.472;9.794;2023-03-22T01:18:25;16.70;;;13.30;;
15968;SDS011;8085;53.472;9.794;2023-03-22T01:20:51;19.57;;;12.80;;
15968;SDS011;8085;53.472;9.794;2023-03-22T01:23:18;19.63;;;13.80;;
15968;SDS011;8085;53.472;9.794;2023-03-22T01:25:45;18.90;;;13.50;;
15968;SDS011;8085;53.472;9.794;2023-03-22T01:28:12;18.60;;;13.63;;
15968;SDS011;8085;53.472;9.794;2023-03-22T01:30:40;19.90;;;13.87;;
15968;SDS011;8085;53.472;9.794;2023-03-22T01:33:07;19.93;;;13.97;;
15968;SDS011;8085;53.472;9.794;2023-03-22T01:35:34;18.80;;;13.37;;
15968;SDS011;8085;53.472;9.794;2023-03-22T01:38:02;18.53;;;13.30;;
15968;SDS011;8085;53.472;9.794;2023-03-22T01:40:29;20.73;;;13.87;;
15968;SDS011;8085;53.472;9.794;2023-03-22T01:42:57;19.10;;;13.10;;
15968;SDS011;8085;53.472;9.794;2023-03-22T01:45:35;16.33;;;12.43;;
15968;SDS011;8085;53.472;9.794;2023-03-22T01:48:07;19.03;;;12.70;;
15968;SDS011;8085;53.472;9.794;2023-03-22T01:50:39;20.90;;;13.20;;
15968;SDS011;8085;53.472;9.794;2023-03-22T01:53:10;16.27;;;13.03;;
15968;SDS011;8085;53.472;9.794;2023-03-22T01:55:42;18.27;;;13.37;;
15968;SDS011;8085;53.472;9.794;2023-03-22T01:58:10;19.13;;;13.33;;
15968;SDS011;8085;53.472;9.794;2023-03-22T02:00:40;17.03;;;13.33;;
15968;SDS011;8085;53.472;9.794;2023-03-22T02:03:08;16.67;;;13.00;;
15968;SDS011;8085;53.472;9.794;2023-03-22T02:05:37;17.53;;;12.20;;
15968;SDS011;8085;53.472;9.794;2023-03-22T02:08:06;22.87;;;14.10;;
15968;SDS011;8085;53.472;9.794;2023-03-22T02:10:33;17.97;;;13.33;;
15968;SDS011;8085;53.472;9.794;2023-03-22T02:13:17;18.07;;;12.97;;
15968;SDS011;8085;53.472;9.794;2023-03-22T02:15:54;16.50;;;12.47;;
15968;SDS011;8085;53.472;9.794;2023-03-22T02:18:34;16.50;;;13.30;;
15968;SDS011;8085;53.472;9.794;2023-03-22T02:21:20;18.23;;;13.20;;
15968;SDS011;8085;53.472;9.794;2023-03-22T02:27:15;17.00;;;12.80;;
15968;SDS011;8085;53.472;9.794;2023-03-22T02:29:54;16.93;;;13.00;;
15968;SDS011;8085;53.472;9.794;2023-03-22T02:35:33;19.07;;;13.33;;
15968;SDS011;8085;53.472;9.794;2023-03-22T02:38:21;18.80;;;12.70;;
15968;SDS011;8085;53.472;9.794;2023-03-22T02:41:25;18.20;;;13.03;;
15968;SDS011;8085;53.472;9.794;2023-03-22T02:44:04;19.63;;;13.03;;
15968;SDS011;8085;53.472;9.794;2023-03-22T02:46:36;20.63;;;12.07;;
15968;SDS011;8085;53.472;9.794;2023-03-22T02:49:10;16.83;;;12.10;;
15968;SDS011;8085;53.472;9.794;2023-03-22T02:51:45;16.67;;;11.70;;
15968;SDS011;8085;53.472;9.794;2023-03-22T02:54:16;20.13;;;12.77;;
15968;SDS011;8085;53.472;9.794;2023-03-22T02:56:50;15.57;;;12.30;;
15968;SDS011;8085;53.472;9.794;2023-03-22T02:59:20;16.47;;;12.43;;
15968;SDS011;8085;53.472;9.794;2023-03-22T03:01:50;16.97;;;11.93;;
15968;SDS011;8085;53.472;9.794;2023-03-22T03:04:19;15.60;;;12.67;;
15968;SDS011;8085;53.472;9.794;2023-03-22T03:06:51;20.07;;;12.93;;
15968;SDS011;8085;53.472;9.794;2023-03-22T03:09:22;14.13;;;11.23;;
15968;SDS011;8085;53.472;9.794;2023-03-22T03:11:51;16.47;;;11.37;;
15968;SDS011;8085;53.472;9.794;2023-03-22T03:14:19;15.70;;;11.87;;
15968;SDS011;8085;53.472;9.794;2023-03-22T03:16:49;18.47;;;11.80;;
15968;SDS011;8085;53.472;9.794;2023-03-22T03:19:32;14.17;;;11.40;;
15968;SDS011;8085;53.472;9.794;2023-03-22T03:22:07;17.93;;;11.93;;
15968;SDS011;8085;53.472;9.794;2023-03-22T03:24:46;15.63;;;11.47;;
15968;SDS011;8085;53.472;9.794;2023-03-22T03:27:21;15.37;;;11.83;;
15968;SDS011;8085;53.472;9.794;2023-03-22T03:29:53;16.73;;;11.97;;
15968;SDS011;8085;53.472;9.794;2023-03-22T03:32:25;18.20;;;12.33;;
15968;SDS011;8085;53.472;9.794;2023-03-22T03:34:56;16.27;;;11.03;;
15968;SDS011;8085;53.472;9.794;2023-03-22T03:37:29;15.00;;;11.63;;
15968;SDS011;8085;53.472;9.794;2023-03-22T03:40:02;16.30;;;10.87;;
15968;SDS011;8085;53.472;9.794;2023-03-22T03:42:36;14.60;;;10.57;;
15968;SDS011;8085;53.472;9.794;2023-03-22T03:45:06;14.63;;;10.80;;
15968;SDS011;8085;53.472;9.794;2023-03-22T03:47:34;14.37;;;10.87;;
15968;SDS011;8085;53.472;9.794;2023-03-22T03:50:02;16.97;;;10.77;;
15968;SDS011;8085;53.472;9.794;2023-03-22T03:52:30;15.87;;;10.07;;
15968;SDS011;8085;53.472;9.794;2023-03-22T03:54:57;17.40;;;11.60;;
15968;SDS011;8085;53.472;9.794;2023-03-22T03:57:24;14.50;;;10.90;;
15968;SDS011;8085;53.472;9.794;2023-03-22T03:59:52;16.43;;;11.33;;
15968;SDS011;8085;53.472;9.794;2023-03-22T04:02:19;14.77;;;10.93;;
15968;SDS011;8085;53.472;9.794;2023-03-22T04:04:46;14.67;;;11.17;;
15968;SDS011;8085;53.472;9.794;2023-03-22T04:07:13;13.23;;;10.03;;
15968;SDS011;8085;53.472;9.794;2023-03-22T04:09:40;14.17;;;9.87;;
15968;SDS011;8085;53.472;9.794;2023-03-22T04:12:07;13.23;;;9.73;;
15968;SDS011;8085;53.472;9.794;2023-03-22T04:14:34;15.63;;;9.67;;
15968;SDS011;8085;53.472;9.794;2023-03-22T04:17:02;15.47;;;9.73;;
15968;SDS011;8085;53.472;9.794;2023-03-22T04:19:29;17.27;;;9.90;;
15968;SDS011;8085;53.472;9.794;2023-03-22T04:21:56;13.63;;;9.97;;
15968;SDS011;8085;53.472;9.794;2023-03-22T04:24:24;16.40;;;10.10;;
15968;SDS011;8085;53.472;9.794;2023-03-22T04:26:51;12.50;;;9.13;;
15968;SDS011;8085;53.472;9.794;2023-03-22T04:29:18;16.27;;;9.93;;
15968;SDS011;8085;53.472;9.794;2023-03-22T04:31:46;15.83;;;10.23;;
15968;SDS011;8085;53.472;9.794;2023-03-22T04:34:14;13.53;;;9.90;;
15968;SDS011;8085;53.472;9.794;2023-03-22T04:36:41;16.07;;;9.70;;
15968;SDS011;8085;53.472;9.794;2023-03-22T04:39:09;13.50;;;9.50;;
15968;SDS011;8085;53.472;9.794;2023-03-22T04:41:37;14.07;;;9.93;;
15968;SDS011;8085;53.472;9.794;2023-03-22T04:44:04;13.63;;;10.00;;
15968;SDS011;8085;53.472;9.794;2023-03-22T04:46:32;14.87;;;9.67;;
15968;SDS011;8085;53.472;9.794;2023-03-22T04:49:00;11.70;;;9.37;;
15968;SDS011;8085;53.472;9.794;2023-03-22T04:51:28;13.90;;;9.97;;
15968;SDS011;8085;53.472;9.794;2023-03-22T04:53:56;14.73;;;9.43;;
15968;SDS011;8085;53.472;9.794;2023-03-22T04:56:23;14.47;;;9.10;;
15968;SDS011;8085;53.472;9.794;2023-03-22T04:58:50;15.70;;;10.00;;
15968;SDS011;8085;53.472;9.794;2023-03-22T05:01:17;13.13;;;8.53;;
15968;SDS011;8085;53.472;9.794;2023-03-22T05:03:44;14.47;;;9.47;;
15968;SDS011;8085;53.472;9.794;2023-03-22T05:06:11;12.83;;;9.07;;
15968;SDS011;8085;53.472;9.794;2023-03-22T05:08:41;13.67;;;9.60;;
15968;SDS011;8085;53.472;9.794;2023-03-22T05:11:10;19.03;;;9.73;;
15968;SDS011;8085;53.472;9.794;2023-03-22T05:13:38;13.70;;;8.80;;
15968;SDS011;8085;53.472;9.794;2023-03-22T05:16:06;14.53;;;9.60;;
15968;SDS011;8085;53.472;9.794;2023-03-22T05:18:34;16.40;;;8.70;;
15968;SDS011;8085;53.472;9.794;2023-03-22T05:21:08;14.97;;;9.67;;
15968;SDS011;8085;53.472;9.794;2023-03-22T05:23:37;11.90;;;8.00;;
15968;SDS011;8085;53.472;9.794;2023-03-22T05:26:06;14.90;;;9.07;;
15968;SDS011;8085;53.472;9.794;2023-03-22T05:28:34;14.60;;;8.80;;
15968;SDS011;8085;53.472;9.794;2023-03-22T05:31:02;14.70;;;8.67;;
15968;SDS011;8085;53.472;9.794;2023-03-22T05:33:30;12.87;;;8.80;;
15968;SDS011;8085;53.472;9.794;2023-03-22T05:35:58;11.27;;;8.13;;
15968;SDS011;8085;53.472;9.794;2023-03-22T05:38:28;12.40;;;8.30;;
15968;SDS011;8085;53.472;9.794;2023-03-22T05:40:55;13.50;;;8.37;;
15968;SDS011;8085;53.472;9.794;2023-03-22T05:43:23;12.63;;;7.73;;
15968;SDS011;8085;53.472;9.794;2023-03-22T05:45:50;11.03;;;7.80;;
15968;SDS011;8085;53.472;9.794;2023-03-22T05:48:17;16.23;;;7.47;;
15968;SDS011;8085;53.472;9.794;2023-03-22T05:50:44;10.90;;;7.70;;
15968;SDS011;8085;53.472;9.794;2023-03-22T05:53:11;11.00;;;7.53;;
15968;SDS011;8085;53.472;9.794;2023-03-22T05:55:37;13.73;;;8.00;;
15968;SDS011;8085;53.472;9.794;2023-03-22T05:58:04;13.70;;;8.20;;
15968;SDS011;8085;53.472;9.794;2023-03-22T06:00:33;12.97;;;8.03;;
15968;SDS011;8085;53.472;9.794;2023-03-22T06:03:01;13.93;;;7.40;;
15968;SDS011;8085;53.472;9.794;2023-03-22T06:05:30;12.97;;;7.53;;
15968;SDS011;8085;53.472;9.794;2023-03-22T06:08:00;14.87;;;7.93;;
15968;SDS011;8085;53.472;9.794;2023-03-22T06:10:27;10.80;;;7.00;;
15968;SDS011;8085;53.472;9.794;2023-03-22T06:12:54;16.20;;;7.30;;
15968;SDS011;8085;53.472;9.794;2023-03-22T06:15:21;11.87;;;8.20;;
15968;SDS011;8085;53.472;9.794;2023-03-22T06:17:49;14.60;;;8.23;;
15968;SDS011;8085;53.472;9.794;2023-03-22T06:20:16;8.83;;;7.30;;
15968;SDS011;8085;53.472;9.794;2023-03-22T06:22:43;12.87;;;7.53;;
15968;SDS011;8085;53.472;9.794;2023-03-22T06:25:10;12.10;;;7.00;;
15968;SDS011;8085;53.472;9.794;2023-03-22T06:27:38;13.07;;;7.63;;
15968;SDS011;8085;53.472;9.794;2023-03-22T06:30:06;13.77;;;7.70;;
15968;SDS011;8085;53.472;9.794;2023-03-22T06:32:33;12.63;;;7.43;;
15968;SDS011;8085;53.472;9.794;2023-03-22T06:35:01;11.30;;;7.37;;
15968;SDS011;8085;53.472;9.794;2023-03-22T06:37:28;12.70;;;7.00;;
15968;SDS011;8085;53.472;9.794;2023-03-22T06:39:55;12.53;;;7.90;;
15968;SDS011;8085;53.472;9.794;2023-03-22T06:42:22;9.83;;;6.87;;
15968;SDS011;8085;53.472;9.794;2023-03-22T06:44:54;13.23;;;7.33;;
15968;SDS011;8085;53.472;9.794;2023-03-22T06:47:21;15.73;;;7.30;;
15968;SDS011;8085;53.472;9.794;2023-03-22T06:49:49;11.43;;;6.97;;
15968;SDS011;8085;53.472;9.794;2023-03-22T06:52:17;9.57;;;6.90;;
15968;SDS011;8085;53.472;9.794;2023-03-22T06:54:44;12.77;;;7.03;;
15968;SDS011;8085;53.472;9.794;2023-03-22T06:57:11;11.93;;;7.43;;
15968;SDS011;8085;53.472;9.794;2023-03-22T06:59:38;12.00;;;7.03;;
15968;SDS011;8085;53.472;9.794;2023-03-22T07:02:05;10.93;;;6.93;;
15968;SDS011;8085;53.472;9.794;2023-03-22T07:04:33;11.20;;;6.93;;
15968;SDS011;8085;53.472;9.794;2023-03-22T07:07:00;10.00;;;7.20;;
15968;SDS011;8085;53.472;9.794;2023-03-22T07:09:28;9.47;;;6.87;;
15968;SDS011;8085;53.472;9.794;2023-03-22T07:11:55;12.07;;;7.53;;
15968;SDS011;8085;53.472;9.794;2023-03-22T07:14:22;12.27;;;7.33;;
15968;SDS011;8085;53.472;9.794;2023-03-22T07:16:49;10.83;;;7.10;;
15968;SDS011;8085;53.472;9.794;2023-03-22T07:19:16;12.30;;;7.60;;
15968;SDS011;8085;53.472;9.794;2023-03-22T07:21:43;11.27;;;7.13;;
15968;SDS011;8085;53.472;9.794;2023-03-22T07:24:09;12.33;;;7.73;;
15968;SDS011;8085;53.472;9.794;2023-03-22T07:26:39;11.57;;;7.90;;
15968;SDS011;8085;53.472;9.794;2023-03-22T07:29:06;12.33;;;8.10;;
15968;SDS011;8085;53.472;9.794;2023-03-22T07:31:35;11.50;;;7.57;;
15968;SDS011;8085;53.472;9.794;2023-03-22T07:34:02;11.97;;;7.97;;
15968;SDS011;8085;53.472;9.794;2023-03-22T07:36:29;10.83;;;8.77;;
15968;SDS011;8085;53.472;9.794;2023-03-22T07:38:58;12.97;;;8.27;;
15968;SDS011;8085;53.472;9.794;2023-03-22T07:41:25;13.03;;;8.47;;
15968;SDS011;8085;53.472;9.794;2023-03-22T07:43:55;12.40;;;8.90;;
15968;SDS011;8085;53.472;9.794;2023-03-22T07:46:22;11.77;;;8.07;;
15968;SDS011;8085;53.472;9.794;2023-03-22T07:48:49;14.20;;;8.70;;
15968;SDS011;8085;53.472;9.794;2023-03-22T07:51:16;14.93;;;9.03;;
15968;SDS011;8085;53.472;9.794;2023-03-22T07:53:43;15.47;;;8.90;;
15968;SDS011;8085;53.472;9.794;2023-03-22T07:56:10;11.70;;;8.77;;
15968;SDS011;8085;53.472;9.794;2023-03-22T07:58:36;12.53;;;8.63;;
15968;SDS011;8085;53.472;9.794;2023-03-22T08:01:05;13.00;;;9.00;;
15968;SDS011;8085;53.472;9.794;2023-03-22T08:03:33;15.03;;;8.80;;
15968;SDS011;8085;53.472;9.794;2023-03-22T08:06:00;13.57;;;8.87;;
15968;SDS011;8085;53.472;9.794;2023-03-22T08:08:30;16.43;;;9.03;;
15968;SDS011;8085;53.472;9.794;2023-03-22T08:10:57;13.30;;;9.10;;
15968;SDS011;8085;53.472;9.794;2023-03-22T08:13:24;12.90;;;9.20;;
15968;SDS011;8085;53.472;9.794;2023-03-22T08:15:51;13.40;;;9.03;;
15968;SDS011;8085;53.472;9.794;2023-03-22T08:18:19;13.13;;;8.53;;
15968;SDS011;8085;53.472;9.794;2023-03-22T08:20:51;11.43;;;9.40;;
15968;SDS011;8085;53.472;9.794;2023-03-22T08:23:18;12.83;;;8.93;;
15968;SDS011;8085;53.472;9.794;2023-03-22T08:25:45;13.60;;;9.67;;
15968;SDS011;8085;53.472;9.794;2023-03-22T08:28:12;12.10;;;8.93;;
15968;SDS011;8085;53.472;9.794;2023-03-22T08:30:40;12.57;;;8.57;;
15968;SDS011;8085;53.472;9.794;2023-03-22T08:33:07;12.37;;;8.23;;
15968;SDS011;8085;53.472;9.794;2023-03-22T08:35:35;14.77;;;9.17;;
15968;SDS011;8085;53.472;9.794;2023-03-22T08:38:02;13.83;;;8.47;;
15968;SDS011;8085;53.472;9.794;2023-03-22T08:40:29;12.20;;;8.43;;
15968;SDS011;8085;53.472;9.794;2023-03-22T08:42:56;15.77;;;8.63;;
15968;SDS011;8085;53.472;9.794;2023-03-22T08:45:24;11.90;;;8.33;;
15968;SDS011;8085;53.472;9.794;2023-03-22T08:47:51;13.83;;;8.20;;
15968;SDS011;8085;53.472;9.794;2023-03-22T08:50:17;11.77;;;7.23;;
15968;SDS011;8085;53.472;9.794;2023-03-22T08:52:46;10.93;;;8.03;;
15968;SDS011;8085;53.472;9.794;2023-03-22T08:55:12;9.97;;;8.13;;
15968;SDS011;8085;53.472;9.794;2023-03-22T08:57:41;10.20;;;7.43;;
15968;SDS011;8085;53.472;9.794;2023-03-22T09:00:14;10.97;;;7.70;;
15968;SDS011;8085;53.472;9.794;2023-03-22T09:02:43;12.83;;;7.53;;
15968;SDS011;8085;53.472;9.794;2023-03-22T09:05:10;13.10;;;7.17;;
15968;SDS011;8085;53.472;9.794;2023-03-22T09:07:38;11.33;;;7.43;;
15968;SDS011;8085;53.472;9.794;2023-03-22T09:10:08;11.73;;;7.57;;
15968;SDS011;8085;53.472;9.794;2023-03-22T09:12:35;12.03;;;7.10;;
15968;SDS011;8085;53.472;9.794;2023-03-22T09:15:03;9.10;;;6.90;;
15968;SDS011;8085;53.472;9.794;2023-03-22T09:17:31;10.37;;;6.70;;
15968;SDS011;8085;53.472;9.794;2023-03-22T09:19:58;11.13;;;6.40;;
15968;SDS011;8085;53.472;9.794;2023-03-22T09:22:25;12.53;;;6.27;;
15968;SDS011;8085;53.472;9.794;2023-03-22T09:24:52;9.20;;;5.83;;
15968;SDS011;8085;53.472;9.794;2023-03-22T09:27:20;12.50;;;6.13;;
15968;SDS011;8085;53.472;9.794;2023-03-22T09:29:47;10.25;;;6.13;;
15968;SDS011;8085;53.472;9.794;2023-03-22T09:32:14;9.60;;;5.40;;
15968;SDS011;8085;53.472;9.794;2023-03-22T09:34:41;11.27;;;5.40;;
15968;SDS011;8085;53.472;9.794;2023-03-22T09:37:08;10.33;;;5.60;;
15968;SDS011;8085;53.472;9.794;2023-03-22T09:39:37;8.63;;;4.50;;
15968;SDS011;8085;53.472;9.794;2023-03-22T09:42:04;7.80;;;4.70;;
15968;SDS011;8085;53.472;9.794;2023-03-22T09:44:38;11.43;;;4.67;;
15968;SDS011;8085;53.472;9.794;2023-03-22T09:47:12;10.43;;;4.27;;
15968;SDS011;8085;53.472;9.794;2023-03-22T09:49:41;7.03;;;4.13;;
15968;SDS011;8085;53.472;9.794;2023-03-22T09:52:12;7.63;;;4.43;;
15968;SDS011;8085;53.472;9.794;2023-03-22T09:54:42;8.90;;;4.63;;
15968;SDS011;8085;53.472;9.794;2023-03-22T09:57:13;10.37;;;3.93;;
15968;SDS011;8085;53.472;9.794;2023-03-22T09:59:49;14.80;;;3.60;;
15968;SDS011;8085;53.472;9.794;2023-03-22T10:02:30;7.93;;;3.30;;
15968;SDS011;8085;53.472;9.794;2023-03-22T10:05:09;12.03;;;3.43;;
15968;SDS011;8085;53.472;9.794;2023-03-22T10:07:44;8.17;;;3.50;;
15968;SDS011;8085;53.472;9.794;2023-03-22T10:10:22;8.00;;;3.30;;
15968;SDS011;8085;53.472;9.794;2023-03-22T10:12:51;7.33;;;3.27;;
15968;SDS011;8085;53.472;9.794;2023-03-22T10:15:27;7.47;;;3.00;;
15968;SDS011;8085;53.472;9.794;2023-03-22T10:17:57;7.27;;;3.40;;
15968;SDS011;8085;53.472;9.794;2023-03-22T10:20:28;5.90;;;2.93;;
15968;SDS011;8085;53.472;9.794;2023-03-22T10:22:59;7.93;;;3.47;;
15968;SDS011;8085;53.472;9.794;2023-03-22T10:25:31;8.70;;;2.40;;
15968;SDS011;8085;53.472;9.794;2023-03-22T10:28:00;6.93;;;2.90;;
15968;SDS011;8085;53.472;9.794;2023-03-22T10:30:29;5.37;;;2.57;;
15968;SDS011;8085;53.472;9.794;2023-03-22T10:33:03;7.13;;;2.70;;
15968;SDS011;8085;53.472;9.794;2023-03-22T10:35:37;6.03;;;2.53;;
15968;SDS011;8085;53.472;9.794;2023-03-22T10:38:17;7.37;;;2.67;;
15968;SDS011;8085;53.472;9.794;2023-03-22T10:40:46;4.50;;;2.23;;
15968;SDS011;8085;53.472;9.794;2023-03-22T10:43:16;7.20;;;2.63;;
15968;SDS011;8085;53.472;9.794;2023-03-22T10:45:50;7.17;;;2.50;;
15968;SDS011;8085;53.472;9.794;2023-03-22T10:48:22;5.83;;;2.43;;
15968;SDS011;8085;53.472;9.794;2023-03-22T10:50:53;8.03;;;2.87;;
15968;SDS011;8085;53.472;9.794;2023-03-22T10:53:28;9.30;;;2.93;;
15968;SDS011;8085;53.472;9.794;2023-03-22T10:56:02;7.30;;;2.80;;
15968;SDS011;8085;53.472;9.794;2023-03-22T10:58:30;4.33;;;2.50;;
15968;SDS011;8085;53.472;9.794;2023-03-22T11:01:02;5.30;;;2.40;;
15968;SDS011;8085;53.472;9.794;2023-03-22T11:03:36;5.80;;;2.60;;
15968;SDS011;8085;53.472;9.794;2023-03-22T11:06:06;6.00;;;2.63;;
15968;SDS011;8085;53.472;9.794;2023-03-22T11:08:42;6.10;;;2.67;;
15968;SDS011;8085;53.472;9.794;2023-03-22T11:11:14;6.57;;;2.83;;
15968;SDS011;8085;53.472;9.794;2023-03-22T11:13:48;7.40;;;2.90;;
15968;SDS011;8085;53.472;9.794;2023-03-22T11:16:19;7.17;;;2.80;;
15968;SDS011;8085;53.472;9.794;2023-03-22T11:18:46;7.83;;;2.90;;
15968;SDS011;8085;53.472;9.794;2023-03-22T11:21:14;5.37;;;2.30;;
15968;SDS011;8085;53.472;9.794;2023-03-22T11:23:44;6.73;;;2.80;;
15968;SDS011;8085;53.472;9.794;2023-03-22T11:26:24;8.57;;;2.40;;
15968;SDS011;8085;53.472;9.794;2023-03-22T11:28:53;7.33;;;2.43;;
15968;SDS011;8085;53.472;9.794;2023-03-22T11:31:29;10.87;;;2.57;;
15968;SDS011;8085;53.472;9.794;2023-03-22T11:34:14;4.23;;;2.03;;
15968;SDS011;8085;53.472;9.794;2023-03-22T11:36:43;5.50;;;2.67;;
15968;SDS011;8085;53.472;9.794;2023-03-22T11:39:16;4.87;;;2.47;;
15968;SDS011;8085;53.472;9.794;2023-03-22T11:41:45;6.37;;;2.57;;
15968;SDS011;8085;53.472;9.794;2023-03-22T11:44:14;4.50;;;2.53;;
15968;SDS011;8085;53.472;9.794;2023-03-22T11:46:48;4.40;;;2.20;;
15968;SDS011;8085;53.472;9.794;2023-03-22T11:49:19;4.40;;;2.23;;
15968;SDS011;8085;53.472;9.794;2023-03-22T11:51:48;4.70;;;2.40;;
15968;SDS011;8085;53.472;9.794;2023-03-22T11:54:21;7.63;;;2.70;;
15968;SDS011;8085;53.472;9.794;2023-03-22T11:56:54;5.03;;;2.53;;
15968;SDS011;8085;53.472;9.794;2023-03-22T11:59:25;7.63;;;2.73;;
15968;SDS011;8085;53.472;9.794;2023-03-22T12:01:57;6.53;;;2.53;;
15968;SDS011;8085;53.472;9.794;2023-03-22T12:04:28;7.53;;;3.20;;
15968;SDS011;8085;53.472;9.794;2023-03-22T12:07:00;8.83;;;3.10;;
15968;SDS011;8085;53.472;9.794;2023-03-22T12:09:34;7.67;;;3.00;;
15968;SDS011;8085;53.472;9.794;2023-03-22T12:12:08;9.33;;;3.20;;
15968;SDS011;8085;53.472;9.794;2023-03-22T12:14:42;7.70;;;2.90;;
15968;SDS011;8085;53.472;9.794;2023-03-22T12:17:16;6.67;;;2.80;;
15968;SDS011;8085;53.472;9.794;2023-03-22T12:19:56;8.53;;;2.77;;
15968;SDS011;8085;53.472;9.794;2023-03-22T12:22:30;6.97;;;3.10;;
15968;SDS011;8085;53.472;9.794;2023-03-22T12:24:59;8.03;;;2.93;;
15968;SDS011;8085;53.472;9.794;2023-03-22T12:27:29;6.33;;;2.60;;
15968;SDS011;8085;53.472;9.794;2023-03-22T12:30:00;5.63;;;2.20;;
15968;SDS011;8085;53.472;9.794;2023-03-22T12:32:34;7.77;;;2.50;;
15968;SDS011;8085;53.472;9.794;2023-03-22T12:35:04;5.87;;;2.30;;
15968;SDS011;8085;53.472;9.794;2023-03-22T12:37:37;6.67;;;2.63;;
15968;SDS011;8085;53.472;9.794;2023-03-22T12:40:13;6.03;;;2.63;;
15968;SDS011;8085;53.472;9.794;2023-03-22T12:42:47;6.03;;;2.80;;
15968;SDS011;8085;53.472;9.794;2023-03-22T12:45:21;7.40;;;2.73;;
15968;SDS011;8085;53.472;9.794;2023-03-22T12:47:52;6.27;;;3.10;;
15968;SDS011;8085;53.472;9.794;2023-03-22T12:50:24;6.77;;;3.73;;
15968;SDS011;8085;53.472;9.794;2023-03-22T12:52:58;6.27;;;4.00;;
15968;SDS011;8085;53.472;9.794;2023-03-22T12:55:28;6.53;;;4.07;;
15968;SDS011;8085;53.472;9.794;2023-03-22T12:57:56;6.47;;;4.50;;
15968;SDS011;8085;53.472;9.794;2023-03-22T13:00:25;10.70;;;5.17;;
15968;SDS011;8085;53.472;9.794;2023-03-22T13:02:57;9.37;;;5.10;;
15968;SDS011;8085;53.472;9.794;2023-03-22T13:05:26;8.43;;;5.67;;
15968;SDS011;8085;53.472;9.794;2023-03-22T13:07:55;8.50;;;5.60;;
15968;SDS011;8085;53.472;9.794;2023-03-22T13:10:38;8.50;;;5.83;;
15968;SDS011;8085;53.472;9.794;2023-03-22T13:13:34;8.27;;;6.13;;
15968;SDS011;8085;53.472;9.794;2023-03-22T13:19:21;8.23;;;6.60;;
15968;SDS011;8085;53.472;9.794;2023-03-22T13:24:59;10.70;;;6.50;;
15968;SDS011;8085;53.472;9.794;2023-03-22T13:27:34;9.13;;;6.30;;
15968;SDS011;8085;53.472;9.794;2023-03-22T13:30:03;14.23;;;6.20;;
15968;SDS011;8085;53.472;9.794;2023-03-22T13:32:41;8.77;;;5.80;;
15968;SDS011;8085;53.472;9.794;2023-03-22T13:35:20;7.73;;;4.73;;
15968;SDS011;8085;53.472;9.794;2023-03-22T13:37:49;8.73;;;4.50;;
15968;SDS011;8085;53.472;9.794;2023-03-22T13:40:28;10.30;;;4.90;;
15968;SDS011;8085;53.472;9.794;2023-03-22T13:43:20;8.27;;;4.50;;
15968;SDS011;8085;53.472;9.794;2023-03-22T13:46:08;7.60;;;4.63;;
15968;SDS011;8085;53.472;9.794;2023-03-22T13:48:40;8.47;;;4.60;;
15968;SDS011;8085;53.472;9.794;2023-03-22T13:51:17;9.73;;;4.30;;
15968;SDS011;8085;53.472;9.794;2023-03-22T13:53:49;10.40;;;3.90;;
15968;SDS011;8085;53.472;9.794;2023-03-22T13:56:33;5.57;;;3.63;;
15968;SDS011;8085;53.472;9.794;2023-03-22T13:59:22;7.63;;;3.20;;
15968;SDS011;8085;53.472;9.794;2023-03-22T14:01:51;8.80;;;3.27;;
15968;SDS011;8085;53.472;9.794;2023-03-22T14:04:22;6.50;;;3.10;;
15968;SDS011;8085;53.472;9.794;2023-03-22T14:06:56;5.73;;;3.20;;
15968;SDS011;8085;53.472;9.794;2023-03-22T14:09:26;7.80;;;3.10;;
15968;SDS011;8085;53.472;9.794;2023-03-22T14:11:59;6.73;;;3.07;;
15968;SDS011;8085;53.472;9.794;2023-03-22T14:14:31;9.20;;;3.10;;
15968;SDS011;8085;53.472;9.794;2023-03-22T14:17:08;4.60;;;2.50;;
15968;SDS011;8085;53.472;9.794;2023-03-22T14:19:52;6.67;;;3.03;;
15968;SDS011;8085;53.472;9.794;2023-03-22T14:22:23;6.13;;;2.93;;
15968;SDS011;8085;53.472;9.794;2023-03-22T14:24:53;7.70;;;2.80;;
15968;SDS011;8085;53.472;9.794;2023-03-22T14:27:21;9.37;;;3.30;;
15968;SDS011;8085;53.472;9.794;2023-03-22T14:29:50;5.57;;;3.43;;
15968;SDS011;8085;53.472;9.794;2023-03-22T14:32:17;7.10;;;3.33;;
15968;SDS011;8085;53.472;9.794;2023-03-22T14:34:49;8.10;;;3.17;;
15968;SDS011;8085;53.472;9.794;2023-03-22T14:37:22;8.83;;;4.07;;
15968;SDS011;8085;53.472;9.794;2023-03-22T14:39:49;8.83;;;3.93;;
15968;SDS011;8085;53.472;9.794;2023-03-22T14:42:22;12.33;;;4.40;;
15968;SDS011;8085;53.472;9.794;2023-03-22T14:44:53;6.40;;;4.27;;
15968;SDS011;8085;53.472;9.794;2023-03-22T14:47:23;9.03;;;4.13;;
15968;SDS011;8085;53.472;9.794;2023-03-22T14:49:53;8.93;;;4.27;;
15968;SDS011;8085;53.472;9.794;2023-03-22T14:52:23;6.67;;;4.00;;
15968;SDS011;8085;53.472;9.794;2023-03-22T14:54:53;9.90;;;3.77;;
15968;SDS011;8085;53.472;9.794;2023-03-22T14:57:24;7.43;;;3.87;;
15968;SDS011;8085;53.472;9.794;2023-03-22T14:59:52;8.53;;;3.70;;
15968;SDS011;8085;53.472;9.794;2023-03-22T15:02:24;8.80;;;3.77;;
15968;SDS011;8085;53.472;9.794;2023-03-22T15:04:58;8.87;;;3.90;;
15968;SDS011;8085;53.472;9.794;2023-03-22T15:07:27;7.70;;;4.07;;
15968;SDS011;8085;53.472;9.794;2023-03-22T15:10:08;9.00;;;3.90;;
15968;SDS011;8085;53.472;9.794;2023-03-22T15:12:36;7.50;;;3.90;;
15968;SDS011;8085;53.472;9.794;2023-03-22T15:15:04;7.50;;;3.83;;
15968;SDS011;8085;53.472;9.794;2023-03-22T15:17:31;7.00;;;3.57;;
15968;SDS011;8085;53.472;9.794;2023-03-22T15:20:01;7.80;;;4.07;;